Time;durP1;ratioP1;P1;durP2;ratioP2;P2;SDS_P1;SDS_P2;PMS_P1;PMS_P2;Temp;Humidity;BMP_temperature;BMP_pressure;BME280_temperature;BME280_humidity;BME280_pressure;Samples;Min_cycle;Max_cycle;Signal;HPM_P1;HPM_P2
2023/07/15 00:01:29;;;;;;;3.22;2.85;;;19.40;99.90;;;;;;4991254;28;20043;-60
2023/07/15 00:03:56;;;;;;;2.83;2.58;;;19.40;99.90;;;;;;5013477;28;20062;-59
2023/07/15 00:06:23;;;;;;;3.25;2.55;;;19.40;99.90;;;;;;4995874;28;20026;-60
2023/07/15 00:08:50;;;;;;;4.35;3.45;;;19.40;99.90;;;;;;5002744;28;20403;-59
2023/07/15 00:11:31;;;;;;;5.43;3.03;;;19.40;99.90;;;;;;4986740;28;20033;-59
2023/07/15 00:13:58;;;;;;;3.22;2.75;;;19.40;99.90;;;;;;4979780;28;20026;-60
2023/07/15 00:16:25;;;;;;;4.97;3.25;;;19.40;99.90;;;;;;4982241;28;20030;-59
2023/07/15 00:18:50;;;;;;;3.55;2.90;;;19.40;99.90;;;;;;4992542;28;20076;-59
2023/07/15 00:21:22;;;;;;;3.28;2.78;;;19.40;99.90;;;;;;4999071;28;20050;-59
2023/07/15 00:23:55;;;;;;;3.75;2.97;;;19.40;99.90;;;;;;4995490;28;20745;-60
2023/07/15 00:26:26;;;;;;;3.97;3.03;;;19.40;99.90;;;;;;5001578;28;20554;-58
2023/07/15 00:28:51;;;;;;;4.93;3.38;;;19.40;99.90;;;;;;4987789;28;20030;-59
2023/07/15 00:31:18;;;;;;;3.33;2.72;;;19.40;99.90;;;;;;5007309;28;20037;-60
2023/07/15 00:33:45;;;;;;;3.65;2.97;;;19.50;99.90;;;;;;5002496;28;20030;-60
2023/07/15 00:36:12;;;;;;;3.22;2.92;;;19.40;99.90;;;;;;4997532;28;20488;-60
2023/07/15 00:38:39;;;;;;;3.20;2.75;;;19.40;99.90;;;;;;5000906;28;20032;-59
2023/07/15 00:41:19;;;;;;;7.55;3.35;;;19.50;99.90;;;;;;4998538;28;20117;-60
2023/07/15 00:44:00;;;;;;;3.05;2.40;;;19.50;99.90;;;;;;4986987;28;20033;-60
2023/07/15 00:47:16;;;;;;;3.47;2.90;;;19.50;99.90;;;;;;5012546;28;20113;-60
2023/07/15 00:49:42;;;;;;;4.05;2.70;;;19.50;99.90;;;;;;4996969;28;20034;-55
2023/07/15 00:52:12;;;;;;;3.50;2.38;;;19.60;99.90;;;;;;5000882;28;20033;-60
2023/07/15 00:54:41;;;;;;;5.15;3.33;;;19.60;99.90;;;;;;5000228;28;20079;-59
2023/07/15 00:57:09;;;;;;;3.13;2.70;;;19.50;99.90;;;;;;5006442;28;20026;-59
2023/07/15 00:59:39;;;;;;;5.43;3.22;;;19.50;99.90;;;;;;5003756;28;20025;-61
2023/07/15 01:02:06;;;;;;;3.55;2.88;;;19.50;99.90;;;;;;4999305;28;20042;-59
2023/07/15 01:04:32;;;;;;;6.43;2.80;;;19.50;99.90;;;;;;4998274;28;20027;-59
2023/07/15 01:06:57;;;;;;;3.45;3.03;;;19.50;99.90;;;;;;5001836;28;20034;-59
2023/07/15 01:09:25;;;;;;;3.88;2.90;;;19.40;99.90;;;;;;4999746;28;20039;-60
2023/07/15 01:11:50;;;;;;;3.85;2.83;;;19.40;99.90;;;;;;4995572;28;20172;-59
2023/07/15 01:14:16;;;;;;;5.85;2.80;;;19.40;99.90;;;;;;4990647;28;20559;-59
2023/07/15 01:16:41;;;;;;;5.35;3.40;;;19.40;99.90;;;;;;5000134;28;20416;-59
2023/07/15 01:19:07;;;;;;;5.47;3.05;;;19.30;99.90;;;;;;5004619;28;20075;-60
2023/07/15 01:21:34;;;;;;;3.25;2.90;;;19.30;99.90;;;;;;5003528;28;20040;-59
2023/07/15 01:24:00;;;;;;;3.85;2.85;;;19.30;99.90;;;;;;5000729;28;20041;-61
2023/07/15 01:26:26;;;;;;;3.85;3.22;;;19.30;99.90;;;;;;4989652;28;20390;-61
2023/07/15 01:28:51;;;;;;;5.88;2.83;;;19.30;99.90;;;;;;5001208;28;20026;-60
2023/07/15 01:31:19;;;;;;;3.05;2.60;;;19.30;99.90;;;;;;5004966;28;20123;-58
2023/07/15 01:33:45;;;;;;;3.63;3.03;;;19.30;99.90;;;;;;5008683;28;20026;-59
2023/07/15 01:36:11;;;;;;;4.55;3.13;;;19.30;99.90;;;;;;5002775;28;20018;-60
2023/07/15 01:38:37;;;;;;;5.07;3.13;;;19.30;99.90;;;;;;5009961;28;20030;-61
2023/07/15 01:41:04;;;;;;;3.55;2.72;;;19.30;99.90;;;;;;5003421;28;20030;-60
2023/07/15 01:43:29;;;;;;;3.85;2.72;;;19.30;99.90;;;;;;5010138;28;20029;-61
2023/07/15 01:45:55;;;;;;;3.63;2.90;;;19.20;99.90;;;;;;5001230;28;20443;-58
2023/07/15 01:48:20;;;;;;;5.70;3.03;;;19.20;99.90;;;;;;5006726;28;20033;-61
2023/07/15 01:50:47;;;;;;;3.67;3.13;;;19.20;99.90;;;;;;5008000;28;20017;-61
2023/07/15 01:53:14;;;;;;;4.72;2.80;;;19.10;99.90;;;;;;5005830;28;20093;-60
2023/07/15 01:55:40;;;;;;;3.47;3.10;;;19.10;99.90;;;;;;5008273;28;20030;-60
2023/07/15 01:58:06;;;;;;;7.57;3.42;;;19.10;99.90;;;;;;5005079;28;20080;-58
2023/07/15 02:00:31;;;;;;;3.75;2.88;;;19.00;99.90;;;;;;5003426;28;20034;-60
2023/07/15 02:02:57;;;;;;;4.57;3.35;;;19.00;99.90;;;;;;5002989;28;20560;-58
2023/07/15 02:05:22;;;;;;;4.97;2.80;;;19.00;99.90;;;;;;4997510;28;20037;-58
2023/07/15 02:07:48;;;;;;;4.47;3.00;;;19.00;99.90;;;;;;5006961;28;20017;-58
2023/07/15 02:10:14;;;;;;;5.72;2.75;;;18.90;99.90;;;;;;4999301;28;20058;-60
2023/07/15 02:12:39;;;;;;;4.72;2.95;;;18.90;99.90;;;;;;5003650;28;20389;-58
2023/07/15 02:15:06;;;;;;;4.88;2.80;;;18.90;99.90;;;;;;4997743;28;20053;-60
2023/07/15 02:17:31;;;;;;;3.38;2.75;;;18.90;99.90;;;;;;5006623;28;20026;-58
2023/07/15 02:19:58;;;;;;;3.55;2.75;;;18.90;99.90;;;;;;5009010;28;20605;-59
2023/07/15 02:22:24;;;;;;;5.65;3.33;;;18.80;99.90;;;;;;4993385;28;20038;-60
2023/07/15 02:24:49;;;;;;;5.72;3.80;;;18.80;99.90;;;;;;5002161;28;20100;-59
2023/07/15 02:27:16;;;;;;;5.18;2.67;;;18.80;99.90;;;;;;4997508;28;20142;-60
2023/07/15 02:29:42;;;;;;;3.53;2.72;;;18.80;99.90;;;;;;5001660;28;20500;-59
2023/07/15 02:32:08;;;;;;;3.42;2.55;;;18.80;99.90;;;;;;4996844;28;20100;-60
2023/07/15 02:34:33;;;;;;;5.70;2.85;;;18.70;99.90;;;;;;5005442;28;20480;-60
2023/07/15 02:36:59;;;;;;;7.05;3.33;;;18.70;99.90;;;;;;5004624;28;20084;-59
2023/07/15 02:39:26;;;;;;;4.05;2.75;;;18.70;99.90;;;;;;4998652;28;20030;-60
2023/07/15 02:41:52;;;;;;;3.60;3.30;;;18.70;99.90;;;;;;5003880;28;20108;-60
2023/07/15 02:44:17;;;;;;;3.45;2.95;;;18.70;99.90;;;;;;4994954;28;20130;-60
2023/07/15 02:46:43;;;;;;;4.82;3.13;;;18.60;99.90;;;;;;5002611;28;20421;-60
2023/07/15 02:49:08;;;;;;;3.50;2.47;;;18.60;99.90;;;;;;5000545;28;20034;-60
2023/07/15 02:51:34;;;;;;;4.50;2.78;;;18.60;99.90;;;;;;4993852;28;20027;-59
2023/07/15 02:54:01;;;;;;;7.10;2.60;;;18.50;99.90;;;;;;5000619;28;20113;-56
2023/07/15 02:56:27;;;;;;;2.67;2.45;;;18.50;99.90;;;;;;5000011;28;20072;-60
2023/07/15 02:58:54;;;;;;;3.75;2.97;;;18.50;99.90;;;;;;5003743;28;20058;-60
2023/07/15 03:01:20;;;;;;;4.18;2.83;;;18.50;99.90;;;;;;4993164;28;20042;-59
2023/07/15 03:03:45;;;;;;;4.15;2.85;;;18.40;99.90;;;;;;4996922;28;20391;-59
2023/07/15 03:06:12;;;;;;;4.20;3.28;;;18.40;99.90;;;;;;4988991;28;20087;-60
2023/07/15 03:08:38;;;;;;;3.90;2.80;;;18.40;99.90;;;;;;4996900;28;21399;-60
2023/07/15 03:11:07;;;;;;;3.75;3.03;;;18.30;99.90;;;;;;4994757;28;20141;-58
2023/07/15 03:13:32;;;;;;;4.18;3.17;;;18.30;99.90;;;;;;5004675;28;20093;-59
2023/07/15 03:15:58;;;;;;;3.78;2.80;;;18.30;99.90;;;;;;4990934;28;20114;-59
2023/07/15 03:18:25;;;;;;;3.72;2.92;;;18.30;99.90;;;;;;4997887;28;20046;-60
2023/07/15 03:20:52;;;;;;;3.25;2.72;;;18.30;99.90;;;;;;4998353;28;20164;-60
2023/07/15 03:23:18;;;;;;;4.93;3.38;;;18.30;99.90;;;;;;4990714;28;20057;-60
2023/07/15 03:25:44;;;;;;;3.05;2.70;;;18.20;99.90;;;;;;4994069;28;20069;-59
2023/07/15 03:28:11;;;;;;;3.47;2.60;;;18.20;99.90;;;;;;4990094;28;20065;-60
2023/07/15 03:30:36;;;;;;;3.75;2.70;;;18.20;99.90;;;;;;4999321;28;20038;-58
2023/07/15 03:33:02;;;;;;;2.88;2.58;;;18.10;99.90;;;;;;4993425;28;20074;-60
2023/07/15 03:35:27;;;;;;;5.55;3.05;;;18.10;99.90;;;;;;4997176;28;20467;-60
2023/07/15 03:37:53;;;;;;;5.18;3.10;;;18.10;99.90;;;;;;5000502;28;20038;-60
2023/07/15 03:40:19;;;;;;;3.33;2.55;;;18.10;99.90;;;;;;5012683;28;20026;-60
2023/07/15 03:42:45;;;;;;;5.00;2.90;;;18.10;99.90;;;;;;5002343;28;20034;-56
2023/07/15 03:45:10;;;;;;;3.75;2.65;;;18.10;99.90;;;;;;4996733;28;20053;-57
2023/07/15 03:47:36;;;;;;;4.18;2.78;;;18.00;99.90;;;;;;4999917;28;20105;-60
2023/07/15 03:50:04;;;;;;;3.55;2.75;;;18.10;99.90;;;;;;4996938;28;20101;-57
2023/07/15 03:52:29;;;;;;;3.92;2.97;;;18.10;99.90;;;;;;4997638;28;20094;-58
2023/07/15 03:54:56;;;;;;;4.07;2.88;;;18.10;99.90;;;;;;5001350;28;20022;-55
2023/07/15 03:57:22;;;;;;;3.13;2.70;;;18.10;99.90;;;;;;4996916;28;20027;-59
2023/07/15 03:59:48;;;;;;;4.72;2.28;;;18.10;99.90;;;;;;5002879;28;20018;-59
2023/07/15 04:02:14;;;;;;;4.05;2.72;;;18.10;99.90;;;;;;4994150;28;20065;-57
2023/07/15 04:04:39;;;;;;;3.67;2.83;;;18.10;99.90;;;;;;4998991;28;20038;-58
2023/07/15 04:07:05;;;;;;;3.50;2.80;;;18.10;99.90;;;;;;4995682;28;20129;-61
2023/07/15 04:09:30;;;;;;;3.88;3.05;;;18.10;99.90;;;;;;4997790;28;20173;-60
2023/07/15 04:11:56;;;;;;;3.38;2.55;;;18.20;99.90;;;;;;5001858;28;20088;-60
2023/07/15 04:14:22;;;;;;;2.50;2.30;;;18.10;99.90;;;;;;4995879;28;20037;-58
2023/07/15 04:16:48;;;;;;;3.75;2.60;;;18.10;99.90;;;;;;4992902;28;20060;-58
2023/07/15 04:19:14;;;;;;;4.93;2.88;;;18.10;99.90;;;;;;4995796;28;20064;-57
2023/07/15 04:21:39;;;;;;;6.28;3.05;;;18.10;99.90;;;;;;4991977;28;20023;-58
2023/07/15 04:24:05;;;;;;;5.22;3.03;;;18.20;99.90;;;;;;4985828;28;20503;-55
2023/07/15 04:26:31;;;;;;;3.83;2.60;;;18.10;99.90;;;;;;4985306;28;20026;-59
2023/07/15 04:28:57;;;;;;;4.18;3.08;;;18.10;99.90;;;;;;4988507;28;20034;-59
2023/07/15 04:31:22;;;;;;;3.58;2.88;;;18.10;99.90;;;;;;4997149;28;20031;-59
2023/07/15 04:33:49;;;;;;;4.18;2.60;;;18.20;99.90;;;;;;4994168;28;20030;-59
2023/07/15 04:36:17;;;;;;;4.20;2.78;;;18.20;99.90;;;;;;4996358;28;20019;-59
2023/07/15 04:38:43;;;;;;;3.30;2.78;;;18.20;99.90;;;;;;4991431;28;20101;-57
2023/07/15 04:41:09;;;;;;;3.42;3.08;;;18.20;99.90;;;;;;4999286;28;20560;-60
2023/07/15 04:43:34;;;;;;;5.07;3.03;;;18.20;99.90;;;;;;4996948;28;20077;-60
2023/07/15 04:46:00;;;;;;;5.88;2.97;;;18.30;99.90;;;;;;4994547;28;20030;-58
2023/07/15 04:48:26;;;;;;;3.95;2.80;;;18.20;99.90;;;;;;4996665;28;20022;-58
2023/07/15 04:50:52;;;;;;;3.42;2.83;;;18.20;99.90;;;;;;4994363;28;20421;-59
2023/07/15 04:53:18;;;;;;;3.67;2.60;;;18.20;99.90;;;;;;4990305;28;20065;-59
2023/07/15 04:55:47;;;;;;;4.25;2.45;;;18.20;99.90;;;;;;4993683;28;20030;-61
2023/07/15 04:58:15;;;;;;;8.20;2.90;;;18.20;99.90;;;;;;4983874;28;20030;-58
2023/07/15 05:00:41;;;;;;;3.58;2.78;;;18.20;99.90;;;;;;4979670;28;20035;-56
2023/07/15 05:03:07;;;;;;;4.82;3.15;;;18.30;99.90;;;;;;4994528;28;20023;-60
2023/07/15 05:05:32;;;;;;;3.95;2.40;;;18.30;99.90;;;;;;4994733;28;20430;-57
2023/07/15 05:08:30;;;;;;;3.67;2.83;;;18.30;99.90;;;;;;4990766;28;20059;-59
2023/07/15 05:10:57;;;;;;;7.68;2.80;;;18.40;99.90;;;;;;4970526;28;20096;-57
2023/07/15 05:13:23;;;;;;;3.85;2.90;;;18.40;99.90;;;;;;4998941;28;20025;-60
2023/07/15 05:15:49;;;;;;;4.25;2.58;;;18.50;99.90;;;;;;4989338;28;20018;-60
2023/07/15 05:18:15;;;;;;;3.03;2.70;;;18.50;99.90;;;;;;4996056;28;20041;-58
2023/07/15 05:20:41;;;;;;;3.70;3.10;;;18.50;99.90;;;;;;4997826;28;20030;-59
2023/07/15 05:23:07;;;;;;;4.80;3.22;;;18.60;99.90;;;;;;4996197;28;20080;-57
2023/07/15 05:25:32;;;;;;;6.15;2.83;;;18.60;99.90;;;;;;4989765;28;20027;-60
2023/07/15 05:27:58;;;;;;;4.03;2.75;;;18.70;99.90;;;;;;4987922;28;20072;-59
2023/07/15 05:30:25;;;;;;;3.83;2.90;;;18.70;99.90;;;;;;4987556;28;20539;-59
2023/07/15 05:32:51;;;;;;;4.03;2.63;;;18.80;99.90;;;;;;4999784;28;20109;-56
2023/07/15 05:35:16;;;;;;;3.13;2.83;;;18.80;99.90;;;;;;4998030;28;20118;-59
2023/07/15 05:37:42;;;;;;;4.93;3.60;;;18.90;99.90;;;;;;5002375;28;20109;-61
2023/07/15 05:40:12;;;;;;;4.20;2.80;;;18.90;99.90;;;;;;5000020;28;20622;-61
2023/07/15 05:42:44;;;;;;;3.15;2.35;;;19.00;99.90;;;;;;4994396;28;20033;-60
2023/07/15 05:45:11;;;;;;;3.42;2.83;;;19.00;99.90;;;;;;5000994;28;20029;-61
2023/07/15 05:47:38;;;;;;;3.60;2.75;;;19.10;99.90;;;;;;5001215;28;20029;-60
2023/07/15 05:50:04;;;;;;;3.20;2.90;;;19.10;99.90;;;;;;5000499;28;20097;-62
2023/07/15 05:52:30;;;;;;;4.97;2.38;;;19.20;99.90;;;;;;5001616;28;20036;-61
2023/07/15 05:54:55;;;;;;;3.10;2.63;;;19.30;99.90;;;;;;4996243;28;20030;-61
2023/07/15 05:57:21;;;;;;;3.53;2.75;;;19.40;99.90;;;;;;5004945;28;20040;-60
2023/07/15 05:59:47;;;;;;;2.67;2.30;;;19.50;99.90;;;;;;4997459;28;20052;-60
2023/07/15 06:02:13;;;;;;;3.80;2.75;;;19.60;99.90;;;;;;4994082;28;20141;-58
2023/07/15 06:04:38;;;;;;;4.60;2.60;;;19.80;99.90;;;;;;4996181;28;20076;-60
2023/07/15 06:07:04;;;;;;;2.72;2.53;;;19.90;99.90;;;;;;4998865;28;20651;-60
2023/07/15 06:09:33;;;;;;;4.82;2.30;;;20.10;99.90;;;;;;4994025;28;20536;-61
2023/07/15 06:11:58;;;;;;;2.85;2.55;;;20.20;99.90;;;;;;5003941;28;20027;-60
2023/07/15 06:14:24;;;;;;;2.60;2.40;;;20.30;99.90;;;;;;4990598;28;20105;-58
2023/07/15 06:16:49;;;;;;;3.35;3.00;;;20.40;99.90;;;;;;4992945;28;20101;-61
2023/07/15 06:19:15;;;;;;;6.93;2.90;;;20.60;99.90;;;;;;4987617;28;20022;-60
2023/07/15 06:21:41;;;;;;;3.10;2.80;;;20.60;99.90;;;;;;4989295;28;20035;-60
2023/07/15 06:24:06;;;;;;;5.28;2.70;;;20.80;99.90;;;;;;4998329;28;20544;-61
2023/07/15 06:26:32;;;;;;;3.63;2.65;;;21.00;99.90;;;;;;4990423;28;20117;-59
2023/07/15 06:28:59;;;;;;;4.72;3.00;;;21.10;99.90;;;;;;4998595;28;20038;-62
2023/07/15 06:31:24;;;;;;;3.67;2.58;;;21.30;99.90;;;;;;5004601;28;20069;-59
2023/07/15 06:33:50;;;;;;;3.00;2.45;;;21.40;99.90;;;;;;5001455;28;20050;-60
2023/07/15 06:36:15;;;;;;;3.45;2.75;;;21.40;99.90;;;;;;4997116;28;20022;-60
2023/07/15 06:38:41;;;;;;;3.83;2.85;;;21.60;99.90;;;;;;5000862;28;20033;-60
2023/07/15 06:41:06;;;;;;;4.95;2.70;;;21.70;99.90;;;;;;5000154;28;20026;-59
2023/07/15 06:43:32;;;;;;;3.38;2.83;;;21.80;99.90;;;;;;4999848;28;20030;-62
2023/07/15 06:45:58;;;;;;;3.47;2.67;;;21.90;99.90;;;;;;5003691;28;20022;-61
2023/07/15 06:48:23;;;;;;;3.53;2.60;;;22.00;99.90;;;;;;4995119;28;20034;-61
2023/07/15 06:50:49;;;;;;;5.45;2.58;;;22.10;99.90;;;;;;4999066;28;20412;-60
2023/07/15 06:53:14;;;;;;;2.42;2.22;;;22.20;99.90;;;;;;4997702;28;20026;-61
2023/07/15 06:55:40;;;;;;;3.75;3.00;;;22.20;99.90;;;;;;4985998;28;20492;-62
2023/07/15 06:58:06;;;;;;;4.38;2.97;;;22.40;99.90;;;;;;5000632;28;20057;-62
2023/07/15 07:00:32;;;;;;;6.22;2.80;;;22.60;99.90;;;;;;4998153;28;20026;-61
2023/07/15 07:02:59;;;;;;;3.92;2.70;;;22.70;99.90;;;;;;5003869;28;20018;-62
2023/07/15 07:05:26;;;;;;;2.88;2.30;;;22.80;99.90;;;;;;4992365;28;20289;-59
2023/07/15 07:07:52;;;;;;;5.03;2.78;;;23.00;99.90;;;;;;4995587;28;20029;-60
2023/07/15 07:10:17;;;;;;;5.13;2.78;;;23.10;99.90;;;;;;4997035;28;20041;-62
2023/07/15 07:12:43;;;;;;;3.95;2.72;;;23.10;99.90;;;;;;4995136;28;20037;-61
2023/07/15 07:15:09;;;;;;;3.83;3.05;;;23.30;99.90;;;;;;5000977;28;20100;-62
2023/07/15 07:17:35;;;;;;;3.85;2.80;;;23.40;99.90;;;;;;5000612;28;20042;-60
2023/07/15 07:20:01;;;;;;;3.88;2.50;;;23.50;99.90;;;;;;4999612;28;20026;-61
2023/07/15 07:22:26;;;;;;;5.13;2.65;;;23.70;99.90;;;;;;4998262;28;20492;-62
2023/07/15 07:24:53;;;;;;;5.03;2.60;;;23.80;99.90;;;;;;5000331;28;20018;-62
2023/07/15 07:27:19;;;;;;;4.20;2.50;;;23.90;99.90;;;;;;5000357;28;20025;-62
2023/07/15 07:29:45;;;;;;;6.07;2.90;;;24.00;99.90;;;;;;5014826;28;20096;-62
2023/07/15 07:32:11;;;;;;;4.18;2.92;;;24.10;99.90;;;;;;5000595;28;20061;-60
2023/07/15 07:34:36;;;;;;;3.88;2.95;;;24.30;99.90;;;;;;5000126;28;20026;-61
2023/07/15 07:37:02;;;;;;;3.58;2.70;;;24.40;99.90;;;;;;5000797;28;20021;-62
2023/07/15 07:39:28;;;;;;;2.78;2.35;;;24.50;99.90;;;;;;4998839;28;20022;-62
2023/07/15 07:41:54;;;;;;;4.95;2.60;;;24.60;99.90;;;;;;5000906;28;20084;-61
2023/07/15 07:44:20;;;;;;;3.10;2.38;;;24.80;99.90;;;;;;4993602;28;20399;-61
2023/07/15 07:46:46;;;;;;;2.78;2.13;;;24.90;99.90;;;;;;5000484;28;20029;-62
2023/07/15 07:49:11;;;;;;;3.47;2.85;;;25.10;99.90;;;;;;5000704;28;20119;-62
2023/07/15 07:51:37;;;;;;;2.95;2.00;;;25.20;99.90;;;;;;4997622;28;20022;-62
2023/07/15 07:54:02;;;;;;;2.92;2.33;;;25.40;99.50;;;;;;5000138;28;20029;-60
2023/07/15 07:56:28;;;;;;;3.47;2.20;;;25.40;99.90;;;;;;4996232;28;20157;-62
2023/07/15 07:58:57;;;;;;;2.83;2.63;;;25.60;99.90;;;;;;5000555;28;20501;-63
2023/07/15 08:01:23;;;;;;;4.18;3.15;;;25.70;99.60;;;;;;4996218;28;20065;-63
2023/07/15 08:03:49;;;;;;;4.03;3.55;;;25.80;99.90;;;;;;4988753;28;20069;-61
2023/07/15 08:06:15;;;;;;;3.22;2.88;;;26.00;99.90;;;;;;4999420;28;20045;-60
2023/07/15 08:08:41;;;;;;;2.83;2.30;;;26.20;99.40;;;;;;4997821;28;20027;-62
2023/07/15 08:11:07;;;;;;;2.50;2.30;;;26.30;99.70;;;;;;4987076;28;20046;-62
2023/07/15 08:13:33;;;;;;;3.38;2.65;;;26.50;99.00;;;;;;5001230;28;20680;-61
2023/07/15 08:15:59;;;;;;;3.25;1.95;;;26.60;97.70;;;;;;4995427;28;20022;-62
2023/07/15 08:18:24;;;;;;;7.10;2.55;;;26.80;98.50;;;;;;5005116;28;20111;-63
2023/07/15 08:20:51;;;;;;;2.92;2.50;;;27.00;98.20;;;;;;4980395;28;20484;-62
2023/07/15 08:23:17;;;;;;;3.67;2.63;;;27.10;97.30;;;;;;5010734;28;20022;-63
2023/07/15 08:25:42;;;;;;;3.95;2.55;;;27.30;98.60;;;;;;4994960;28;20397;-63
2023/07/15 08:28:08;;;;;;;8.43;2.95;;;27.30;99.30;;;;;;4988622;28;20018;-63
2023/07/15 08:30:36;;;;;;;2.65;2.42;;;27.50;97.60;;;;;;4991004;28;20089;-62
2023/07/15 08:33:05;;;;;;;2.47;2.10;;;27.60;97.70;;;;;;4989958;28;20034;-61
2023/07/15 08:35:34;;;;;;;2.55;2.35;;;27.80;96.10;;;;;;5001177;28;20029;-63
2023/07/15 08:38:00;;;;;;;4.32;2.13;;;27.90;95.70;;;;;;4991305;28;20069;-62
2023/07/15 08:40:26;;;;;;;4.07;2.70;;;28.00;95.50;;;;;;5002921;28;20026;-62
2023/07/15 08:42:52;;;;;;;4.15;2.20;;;28.10;97.00;;;;;;4992638;28;20664;-61
2023/07/15 08:45:19;;;;;;;2.80;2.60;;;28.30;97.40;;;;;;4989167;28;20540;-60
2023/07/15 08:47:46;;;;;;;3.40;2.53;;;28.40;95.60;;;;;;4998163;28;20113;-63
2023/07/15 08:50:12;;;;;;;2.35;2.10;;;28.40;96.40;;;;;;5003184;28;20022;-63
2023/07/15 08:52:40;;;;;;;2.72;1.95;;;28.60;99.00;;;;;;4994630;28;20058;-61
2023/07/15 08:55:06;;;;;;;2.42;2.08;;;28.50;94.60;;;;;;4997340;28;20026;-62
2023/07/15 08:57:32;;;;;;;2.97;2.33;;;28.50;95.20;;;;;;5000394;28;20026;-62
2023/07/15 08:59:58;;;;;;;2.78;2.28;;;28.60;94.80;;;;;;4999352;28;20019;-62
2023/07/15 09:02:24;;;;;;;3.63;2.75;;;28.70;95.30;;;;;;4993450;28;20038;-62
2023/07/15 09:04:50;;;;;;;1.90;1.73;;;28.70;95.60;;;;;;4991830;28;20027;-62
2023/07/15 09:07:15;;;;;;;2.97;2.13;;;28.80;95.50;;;;;;5001783;28;20038;-62
2023/07/15 09:09:42;;;;;;;2.63;2.42;;;28.80;94.90;;;;;;5001016;28;20061;-62
2023/07/15 09:12:10;;;;;;;4.03;2.15;;;28.90;94.20;;;;;;5004616;28;20034;-62
2023/07/15 09:14:45;;;;;;;3.00;2.38;;;28.90;94.40;;;;;;5001230;28;20014;-61
2023/07/15 09:17:21;;;;;;;3.75;2.20;;;29.00;93.80;;;;;;5004134;28;20041;-59
2023/07/15 09:19:47;;;;;;;3.00;2.42;;;29.00;93.80;;;;;;5000088;28;20231;-63
2023/07/15 09:22:13;;;;;;;2.72;2.13;;;29.00;94.00;;;;;;5003330;28;20780;-62
2023/07/15 09:24:39;;;;;;;2.53;2.00;;;29.00;93.50;;;;;;4995141;28;20724;-63
2023/07/15 09:27:06;;;;;;;5.22;1.80;;;29.00;94.30;;;;;;5002484;28;20026;-63
2023/07/15 09:29:33;;;;;;;2.50;2.30;;;29.10;96.00;;;;;;4999087;28;20037;-62
2023/07/15 09:31:58;;;;;;;3.67;2.17;;;29.20;94.50;;;;;;5003239;28;20543;-62
2023/07/15 09:34:24;;;;;;;1.90;1.80;;;29.30;93.40;;;;;;4991085;28;20039;-61
2023/07/15 09:36:52;;;;;;;1.77;1.67;;;29.30;92.80;;;;;;4995768;28;20072;-61
2023/07/15 09:39:19;;;;;;;2.10;1.90;;;29.30;92.70;;;;;;5000121;28;20049;-61
2023/07/15 09:42:02;;;;;;;2.83;1.77;;;29.40;93.50;;;;;;5001836;28;20080;-63
2023/07/15 09:44:40;;;;;;;2.70;2.08;;;29.40;95.40;;;;;;5000996;28;20488;-60
2023/07/15 09:47:06;;;;;;;2.20;2.00;;;29.30;93.40;;;;;;5001541;28;20041;-60
2023/07/15 09:49:32;;;;;;;3.50;2.42;;;29.30;92.50;;;;;;5003369;28;20136;-60
2023/07/15 09:51:58;;;;;;;1.77;1.60;;;29.40;93.40;;;;;;4998611;28;20027;-61
2023/07/15 09:54:26;;;;;;;2.30;1.83;;;29.40;93.20;;;;;;5002003;28;20038;-59
2023/07/15 09:56:56;;;;;;;2.22;2.03;;;29.50;93.70;;;;;;5000499;28;20734;-62
2023/07/15 09:59:25;;;;;;;3.72;2.00;;;29.50;92.00;;;;;;5002997;28;20041;-62
2023/07/15 10:01:55;;;;;;;1.98;1.75;;;29.50;91.70;;;;;;4990322;28;20120;-62
2023/07/15 10:04:34;;;;;;;2.53;1.95;;;29.50;91.70;;;;;;5002331;28;20459;-62
2023/07/15 10:07:01;;;;;;;2.40;1.98;;;29.50;91.90;;;;;;5003169;28;20484;-63
2023/07/15 10:09:28;;;;;;;4.00;1.88;;;29.60;92.40;;;;;;4994106;28;20058;-62
2023/07/15 10:11:55;;;;;;;2.85;1.83;;;29.60;93.40;;;;;;5005378;28;20106;-62
2023/07/15 10:14:22;;;;;;;2.22;1.90;;;29.60;91.50;;;;;;4999438;28;20033;-62
2023/07/15 10:17:15;;;;;;;2.55;2.00;;;29.70;92.10;;;;;;5006317;28;20011;-61
2023/07/15 10:19:51;;;;;;;1.88;1.77;;;29.70;92.20;;;;;;5002558;28;20026;-63
2023/07/15 10:22:18;;;;;;;2.45;1.95;;;29.70;92.40;;;;;;5001127;28;20026;-62
2023/07/15 10:24:55;;;;;;;6.00;2.17;;;29.70;90.70;;;;;;5001072;28;20184;-62
2023/07/15 10:27:21;;;;;;;4.20;2.30;;;29.70;92.50;;;;;;4999552;28;20037;-61
2023/07/15 10:30:07;;;;;;;2.08;1.85;;;29.70;92.20;;;;;;4989631;28;20411;-62
2023/07/15 10:32:32;;;;;;;2.25;1.80;;;29.80;91.80;;;;;;4997205;28;21301;-63
2023/07/15 10:35:03;;;;;;;6.20;1.95;;;29.80;92.20;;;;;;5001910;28;20702;-61
2023/07/15 10:37:33;;;;;;;1.83;1.63;;;29.80;93.00;;;;;;5001091;28;20030;-62
2023/07/15 10:39:59;;;;;;;3.80;2.13;;;29.80;92.80;;;;;;4997634;28;20072;-60
2023/07/15 10:42:24;;;;;;;2.72;2.17;;;29.90;92.20;;;;;;4993399;28;20026;-61
2023/07/15 10:44:54;;;;;;;5.60;2.30;;;29.90;91.70;;;;;;4991424;28;20673;-59
2023/07/15 10:47:21;;;;;;;2.20;1.70;;;29.90;92.30;;;;;;4991095;28;20037;-62
2023/07/15 10:49:48;;;;;;;3.03;1.85;;;29.90;92.30;;;;;;4995593;28;20149;-62
2023/07/15 10:52:23;;;;;;;2.10;1.90;;;29.80;92.40;;;;;;5002342;28;20030;-61
2023/07/15 10:54:52;;;;;;;1.52;1.42;;;29.80;91.80;;;;;;4994623;28;20080;-61
2023/07/15 10:57:19;;;;;;;2.03;1.88;;;29.70;92.30;;;;;;4995951;28;20038;-63
2023/07/15 10:59:46;;;;;;;2.00;1.70;;;29.70;91.80;;;;;;4998205;28;20361;-63
2023/07/15 11:02:12;;;;;;;2.35;1.70;;;29.70;91.30;;;;;;4997398;28;20535;-63
2023/07/15 11:04:39;;;;;;;2.83;1.95;;;29.60;91.70;;;;;;4996469;28;20041;-63
2023/07/15 11:07:09;;;;;;;3.35;1.88;;;29.60;92.70;;;;;;4999781;28;20042;-60
2023/07/15 11:09:39;;;;;;;2.88;2.30;;;29.60;92.00;;;;;;4997480;28;20969;-61
2023/07/15 11:12:06;;;;;;;1.95;1.33;;;29.60;92.20;;;;;;4998517;28;20040;-62
2023/07/15 11:14:32;;;;;;;1.80;1.52;;;29.50;92.60;;;;;;4997403;28;20528;-59
2023/07/15 11:16:59;;;;;;;1.67;1.55;;;29.50;92.30;;;;;;5003175;28;20026;-62
2023/07/15 11:19:28;;;;;;;1.75;1.60;;;29.60;91.80;;;;;;4991672;28;20110;-64
2023/07/15 11:21:55;;;;;;;1.92;1.60;;;29.80;91.20;;;;;;5000789;28;20091;-61
2023/07/15 11:24:25;;;;;;;2.72;1.48;;;30.00;91.00;;;;;;4999374;28;20101;-64
2023/07/15 11:26:51;;;;;;;3.33;1.70;;;30.20;90.70;;;;;;4984812;28;20029;-62
2023/07/15 11:29:19;;;;;;;2.28;1.63;;;30.30;90.70;;;;;;4999263;28;20034;-61
2023/07/15 11:31:47;;;;;;;2.05;1.67;;;30.30;90.60;;;;;;4988330;28;20037;-60
2023/07/15 11:34:16;;;;;;;3.25;1.90;;;30.40;91.60;;;;;;4995742;28;20029;-61
2023/07/15 11:36:42;;;;;;;1.83;1.58;;;30.40;90.50;;;;;;4996388;28;20015;-61
2023/07/15 11:39:09;;;;;;;1.70;1.48;;;30.50;90.70;;;;;;5000893;28;20515;-61
2023/07/15 11:41:36;;;;;;;1.60;1.38;;;30.50;90.20;;;;;;4996342;28;20026;-61
2023/07/15 11:44:15;;;;;;;2.38;1.30;;;30.50;90.30;;;;;;5000270;28;20058;-62
2023/07/15 11:46:44;;;;;;;2.00;1.52;;;30.50;90.30;;;;;;4993364;28;20027;-62
2023/07/15 11:49:10;;;;;;;2.78;1.70;;;30.50;90.60;;;;;;5000549;28;20488;-62
2023/07/15 11:51:39;;;;;;;1.80;1.70;;;30.50;90.50;;;;;;4994968;28;20057;-62
2023/07/15 11:54:14;;;;;;;3.17;1.50;;;30.60;90.30;;;;;;4997630;28;20030;-60
2023/07/15 11:56:41;;;;;;;3.08;1.83;;;30.60;91.20;;;;;;4998587;28;20019;-61
2023/07/15 11:59:08;;;;;;;1.90;1.70;;;30.50;88.70;;;;;;5000516;28;20049;-61
2023/07/15 12:01:36;;;;;;;2.58;1.75;;;30.30;90.50;;;;;;4998700;28;20646;-58
2023/07/15 12:04:11;;;;;;;2.53;1.45;;;30.20;90.10;;;;;;5000073;28;20030;-61
2023/07/15 12:06:45;;;;;;;;;;;30.10;89.90;;;;;;4998876;28;20030;-61
2023/07/15 12:09:12;;;;;;;1.65;1.27;;;30.00;90.30;;;;;;5008903;28;19917;-61
2023/07/15 12:11:37;;;;;;;4.90;2.00;;;29.90;91.30;;;;;;4985958;28;20022;-61
2023/07/15 12:14:04;;;;;;;2.75;1.80;;;29.80;90.70;;;;;;4996014;28;20030;-61
2023/07/15 12:16:32;;;;;;;2.08;1.65;;;29.70;90.90;;;;;;4997799;28;20023;-62
2023/07/15 12:18:59;;;;;;;1.73;1.48;;;29.60;90.10;;;;;;5000864;28;20018;-63
2023/07/15 12:21:25;;;;;;;3.72;1.70;;;29.40;90.60;;;;;;4996672;28;20027;-63
2023/07/15 12:23:50;;;;;;;5.30;1.70;;;29.30;90.20;;;;;;5002449;28;20018;-63
2023/07/15 12:26:18;;;;;;;2.58;1.30;;;29.40;90.90;;;;;;4985919;28;20034;-63
2023/07/15 12:28:43;;;;;;;2.20;1.60;;;29.50;90.60;;;;;;4994356;28;20033;-60
2023/07/15 12:31:09;;;;;;;3.80;1.90;;;29.50;90.70;;;;;;4997519;28;20030;-62
2023/07/15 12:33:35;;;;;;;1.85;1.52;;;29.60;91.20;;;;;;5003912;28;20500;-60
2023/07/15 12:36:02;;;;;;;2.17;1.63;;;29.60;90.60;;;;;;4996106;28;20389;-63
2023/07/15 12:38:28;;;;;;;2.88;1.52;;;29.60;90.90;;;;;;4996945;28;20077;-63
2023/07/15 12:40:53;;;;;;;2.28;1.60;;;29.60;90.20;;;;;;5002016;28;20010;-62
2023/07/15 12:43:20;;;;;;;3.58;1.65;;;29.50;90.90;;;;;;4989982;28;20468;-62
2023/07/15 12:45:46;;;;;;;1.67;1.48;;;29.50;90.90;;;;;;4998702;28;20018;-60
2023/07/15 12:48:12;;;;;;;1.83;1.73;;;29.40;91.20;;;;;;5000134;28;20033;-60